sensor_id;sensor_type;location;lat;lon;timestamp;temperature;humidity
41928;DHT22;27616;51.420;6.788;2024-03-17T00:02:25;4.60;99.90
41928;DHT22;27616;51.420;6.788;2024-03-17T00:04:50;4.50;99.90
41928;DHT22;27616;51.420;6.788;2024-03-17T00:07:16;4.50;99.90
41928;DHT22;27616;51.420;6.788;2024-03-17T00:09:42;4.50;99.90
41928;DHT22;27616;51.420;6.788;2024-03-17T00:12:08;4.50;99.90
41928;DHT22;27616;51.420;6.788;2024-03-17T00:14:34;4.40;99.90
41928;DHT22;27616;51.420;6.788;2024-03-17T00:17:01;4.40;99.90
41928;DHT22;27616;51.420;6.788;2024-03-17T00:19:26;4.40;99.90
41928;DHT22;27616;51.420;6.788;2024-03-17T00:21:52;4.40;99.90
41928;DHT22;27616;51.420;6.788;2024-03-17T00:24:19;4.40;99.90
41928;DHT22;27616;51.420;6.788;2024-03-17T00:26:45;4.40;99.90
41928;DHT22;27616;51.420;6.788;2024-03-17T00:29:11;4.40;99.90
41928;DHT22;27616;51.420;6.788;2024-03-17T00:31:36;4.30;99.90
41928;DHT22;27616;51.420;6.788;2024-03-17T00:34:03;4.30;99.90
41928;DHT22;27616;51.420;6.788;2024-03-17T00:36:29;4.30;99.90
41928;DHT22;27616;51.420;6.788;2024-03-17T00:38:55;4.20;99.90
41928;DHT22;27616;51.420;6.788;2024-03-17T00:41:22;4.20;99.90
41928;DHT22;27616;51.420;6.788;2024-03-17T00:43:51;4.10;99.90
41928;DHT22;27616;51.420;6.788;2024-03-17T00:46:21;4.20;99.90
41928;DHT22;27616;51.420;6.788;2024-03-17T00:48:48;4.20;99.90
41928;DHT22;27616;51.420;6.788;2024-03-17T00:51:15;4.20;99.90
41928;DHT22;27616;51.420;6.788;2024-03-17T00:53:40;4.30;99.90
41928;DHT22;27616;51.420;6.788;2024-03-17T00:56:06;4.30;99.90
41928;DHT22;27616;51.420;6.788;2024-03-17T00:58:32;4.30;99.90
41928;DHT22;27616;51.420;6.788;2024-03-17T01:00:57;4.30;99.90
41928;DHT22;27616;51.420;6.788;2024-03-17T01:03:23;4.30;99.90
41928;DHT22;27616;51.420;6.788;2024-03-17T01:05:49;4.30;99.90
41928;DHT22;27616;51.420;6.788;2024-03-17T01:08:18;4.30;99.90
41928;DHT22;27616;51.420;6.788;2024-03-17T01:10:45;4.40;99.90
41928;DHT22;27616;51.420;6.788;2024-03-17T01:13:11;4.40;99.90
41928;DHT22;27616;51.420;6.788;2024-03-17T01:15:38;4.30;99.90
41928;DHT22;27616;51.420;6.788;2024-03-17T01:18:05;4.40;99.90
41928;DHT22;27616;51.420;6.788;2024-03-17T01:20:32;4.40;99.90
41928;DHT22;27616;51.420;6.788;2024-03-17T01:22:58;4.40;99.90
41928;DHT22;27616;51.420;6.788;2024-03-17T01:25:24;4.50;99.90
41928;DHT22;27616;51.420;6.788;2024-03-17T01:27:55;4.50;99.90
41928;DHT22;27616;51.420;6.788;2024-03-17T01:30:21;4.50;99.90
41928;DHT22;27616;51.420;6.788;2024-03-17T01:32:47;4.50;99.90
41928;DHT22;27616;51.420;6.788;2024-03-17T01:35:14;4.50;99.90
41928;DHT22;27616;51.420;6.788;2024-03-17T01:37:40;4.50;99.90
41928;DHT22;27616;51.420;6.788;2024-03-17T01:40:06;4.60;99.90
41928;DHT22;27616;51.420;6.788;2024-03-17T01:42:36;4.60;99.90
41928;DHT22;27616;51.420;6.788;2024-03-17T01:45:33;4.60;99.90
41928;DHT22;27616;51.420;6.788;2024-03-17T01:48:01;4.80;99.90
41928;DHT22;27616;51.420;6.788;2024-03-17T01:50:33;4.80;99.90
41928;DHT22;27616;51.420;6.788;2024-03-17T01:53:02;4.90;99.90
41928;DHT22;27616;51.420;6.788;2024-03-17T01:55:31;4.90;99.90
41928;DHT22;27616;51.420;6.788;2024-03-17T01:57:58;4.80;99.90
41928;DHT22;27616;51.420;6.788;2024-03-17T02:00:23;4.80;99.90
41928;DHT22;27616;51.420;6.788;2024-03-17T02:02:49;4.70;99.90
41928;DHT22;27616;51.420;6.788;2024-03-17T02:05:15;4.80;99.90
41928;DHT22;27616;51.420;6.788;2024-03-17T02:07:40;4.80;99.90
41928;DHT22;27616;51.420;6.788;2024-03-17T02:10:06;4.80;99.90
41928;DHT22;27616;51.420;6.788;2024-03-17T02:12:34;4.90;99.90
41928;DHT22;27616;51.420;6.788;2024-03-17T02:15:01;5.00;99.90
41928;DHT22;27616;51.420;6.788;2024-03-17T02:17:27;5.00;99.90
41928;DHT22;27616;51.420;6.788;2024-03-17T02:19:55;4.90;99.90
41928;DHT22;27616;51.420;6.788;2024-03-17T02:22:21;4.90;99.90
41928;DHT22;27616;51.420;6.788;2024-03-17T02:24:46;4.90;99.90
41928;DHT22;27616;51.420;6.788;2024-03-17T02:27:12;5.00;99.90
41928;DHT22;27616;51.420;6.788;2024-03-17T02:29:38;4.90;99.90
41928;DHT22;27616;51.420;6.788;2024-03-17T02:32:05;4.90;99.90
41928;DHT22;27616;51.420;6.788;2024-03-17T02:34:35;4.90;99.90
41928;DHT22;27616;51.420;6.788;2024-03-17T02:37:02;4.90;99.90
41928;DHT22;27616;51.420;6.788;2024-03-17T02:39:29;5.00;99.90
41928;DHT22;27616;51.420;6.788;2024-03-17T02:42:04;5.10;99.90
41928;DHT22;27616;51.420;6.788;2024-03-17T02:44:31;5.30;99.90
41928;DHT22;27616;51.420;6.788;2024-03-17T02:47:01;5.30;99.90
41928;DHT22;27616;51.420;6.788;2024-03-17T02:49:28;5.30;99.90
41928;DHT22;27616;51.420;6.788;2024-03-17T02:52:00;5.30;99.90
41928;DHT22;27616;51.420;6.788;2024-03-17T02:54:26;5.30;99.90
41928;DHT22;27616;51.420;6.788;2024-03-17T02:56:52;5.30;99.90
41928;DHT22;27616;51.420;6.788;2024-03-17T02:59:17;5.30;99.90
41928;DHT22;27616;51.420;6.788;2024-03-17T03:01:43;5.20;99.90
41928;DHT22;27616;51.420;6.788;2024-03-17T03:04:10;5.20;99.90
41928;DHT22;27616;51.420;6.788;2024-03-17T03:06:37;5.20;99.90
41928;DHT22;27616;51.420;6.788;2024-03-17T03:09:03;5.20;99.90
41928;DHT22;27616;51.420;6.788;2024-03-17T03:11:31;5.10;99.90
41928;DHT22;27616;51.420;6.788;2024-03-17T03:13:56;5.10;99.90
41928;DHT22;27616;51.420;6.788;2024-03-17T03:16:22;5.10;99.90
41928;DHT22;27616;51.420;6.788;2024-03-17T03:18:47;5.10;99.90
41928;DHT22;27616;51.420;6.788;2024-03-17T03:21:15;5.10;99.90
41928;DHT22;27616;51.420;6.788;2024-03-17T03:23:41;5.00;99.90
41928;DHT22;27616;51.420;6.788;2024-03-17T03:26:06;5.00;99.90
41928;DHT22;27616;51.420;6.788;2024-03-17T03:28:35;5.00;99.90
41928;DHT22;27616;51.420;6.788;2024-03-17T03:31:01;4.90;99.90
41928;DHT22;27616;51.420;6.788;2024-03-17T03:33:27;4.90;99.90
41928;DHT22;27616;51.420;6.788;2024-03-17T03:35:53;4.90;99.90
41928;DHT22;27616;51.420;6.788;2024-03-17T03:38:20;4.90;99.90
41928;DHT22;27616;51.420;6.788;2024-03-17T03:40:47;4.90;99.90
41928;DHT22;27616;51.420;6.788;2024-03-17T03:43:16;4.90;99.90
41928;DHT22;27616;51.420;6.788;2024-03-17T03:45:41;4.80;99.90
41928;DHT22;27616;51.420;6.788;2024-03-17T03:48:08;4.80;99.90
41928;DHT22;27616;51.420;6.788;2024-03-17T03:50:34;4.80;99.90
41928;DHT22;27616;51.420;6.788;2024-03-17T03:53:00;4.80;99.90
41928;DHT22;27616;51.420;6.788;2024-03-17T03:55:26;4.80;99.90
41928;DHT22;27616;51.420;6.788;2024-03-17T03:57:52;4.80;99.90
41928;DHT22;27616;51.420;6.788;2024-03-17T04:00:20;4.80;99.90
41928;DHT22;27616;51.420;6.788;2024-03-17T04:02:51;4.70;99.90
41928;DHT22;27616;51.420;6.788;2024-03-17T04:05:19;4.70;99.90
41928;DHT22;27616;51.420;6.788;2024-03-17T04:07:46;4.70;99.90
41928;DHT22;27616;51.420;6.788;2024-03-17T04:10:13;4.70;99.90
41928;DHT22;27616;51.420;6.788;2024-03-17T04:12:39;4.70;99.90
41928;DHT22;27616;51.420;6.788;2024-03-17T04:15:05;4.70;99.90
41928;DHT22;27616;51.420;6.788;2024-03-17T04:17:36;4.70;99.90
41928;DHT22;27616;51.420;6.788;2024-03-17T04:20:03;4.70;99.90
41928;DHT22;27616;51.420;6.788;2024-03-17T04:22:30;4.70;99.90
41928;DHT22;27616;51.420;6.788;2024-03-17T04:24:56;4.70;99.90
41928;DHT22;27616;51.420;6.788;2024-03-17T04:27:31;4.70;99.90
41928;DHT22;27616;51.420;6.788;2024-03-17T04:29:59;4.80;99.90
41928;DHT22;27616;51.420;6.788;2024-03-17T04:32:25;4.70;99.90
41928;DHT22;27616;51.420;6.788;2024-03-17T04:34:53;4.70;99.90
41928;DHT22;27616;51.420;6.788;2024-03-17T04:37:19;4.60;99.90
41928;DHT22;27616;51.420;6.788;2024-03-17T04:39:47;4.50;99.90
41928;DHT22;27616;51.420;6.788;2024-03-17T04:42:14;4.40;99.90
41928;DHT22;27616;51.420;6.788;2024-03-17T04:44:40;4.40;99.90
41928;DHT22;27616;51.420;6.788;2024-03-17T04:47:06;4.30;99.90
41928;DHT22;27616;51.420;6.788;2024-03-17T04:49:40;4.30;99.90
41928;DHT22;27616;51.420;6.788;2024-03-17T04:52:06;4.30;99.90
41928;DHT22;27616;51.420;6.788;2024-03-17T04:54:35;4.30;99.90
41928;DHT22;27616;51.420;6.788;2024-03-17T04:57:01;4.40;99.90
41928;DHT22;27616;51.420;6.788;2024-03-17T04:59:27;4.50;99.90
41928;DHT22;27616;51.420;6.788;2024-03-17T05:01:53;4.50;99.90
41928;DHT22;27616;51.420;6.788;2024-03-17T05:04:19;4.50;99.90
41928;DHT22;27616;51.420;6.788;2024-03-17T05:06:44;4.50;99.90
41928;DHT22;27616;51.420;6.788;2024-03-17T05:09:18;4.50;99.90
41928;DHT22;27616;51.420;6.788;2024-03-17T05:11:44;4.50;99.90
41928;DHT22;27616;51.420;6.788;2024-03-17T05:14:10;4.50;99.90
41928;DHT22;27616;51.420;6.788;2024-03-17T05:16:35;4.50;99.90
41928;DHT22;27616;51.420;6.788;2024-03-17T05:19:01;4.60;99.90
41928;DHT22;27616;51.420;6.788;2024-03-17T05:21:27;4.80;99.90
41928;DHT22;27616;51.420;6.788;2024-03-17T05:23:56;4.90;99.90
41928;DHT22;27616;51.420;6.788;2024-03-17T05:26:23;4.90;99.90
41928;DHT22;27616;51.420;6.788;2024-03-17T05:28:50;4.90;99.90
41928;DHT22;27616;51.420;6.788;2024-03-17T05:31:15;4.80;99.90
41928;DHT22;27616;51.420;6.788;2024-03-17T05:33:46;4.90;99.90
41928;DHT22;27616;51.420;6.788;2024-03-17T05:36:12;4.90;99.90
41928;DHT22;27616;51.420;6.788;2024-03-17T05:38:37;4.90;99.90
41928;DHT22;27616;51.420;6.788;2024-03-17T05:41:04;5.00;99.90
41928;DHT22;27616;51.420;6.788;2024-03-17T05:43:32;5.20;99.90
41928;DHT22;27616;51.420;6.788;2024-03-17T05:46:13;5.20;99.90
41928;DHT22;27616;51.420;6.788;2024-03-17T05:48:40;5.30;99.90
41928;DHT22;27616;51.420;6.788;2024-03-17T05:51:06;5.30;99.90
41928;DHT22;27616;51.420;6.788;2024-03-17T05:53:32;5.30;99.90
41928;DHT22;27616;51.420;6.788;2024-03-17T05:56:02;5.30;99.90
41928;DHT22;27616;51.420;6.788;2024-03-17T05:58:28;5.40;99.90
41928;DHT22;27616;51.420;6.788;2024-03-17T06:00:53;5.50;99.90
41928;DHT22;27616;51.420;6.788;2024-03-17T06:03:19;5.50;99.90
41928;DHT22;27616;51.420;6.788;2024-03-17T06:05:45;5.50;99.90
41928;DHT22;27616;51.420;6.788;2024-03-17T06:08:14;5.50;99.90
41928;DHT22;27616;51.420;6.788;2024-03-17T06:10:44;5.50;99.90
41928;DHT22;27616;51.420;6.788;2024-03-17T06:13:10;5.60;99.90
41928;DHT22;27616;51.420;6.788;2024-03-17T06:15:39;5.70;99.90
41928;DHT22;27616;51.420;6.788;2024-03-17T06:18:05;5.70;99.90
41928;DHT22;27616;51.420;6.788;2024-03-17T06:20:34;5.70;99.90
41928;DHT22;27616;51.420;6.788;2024-03-17T06:23:00;5.80;99.90
41928;DHT22;27616;51.420;6.788;2024-03-17T06:25:26;5.90;99.90
41928;DHT22;27616;51.420;6.788;2024-03-17T06:27:52;6.00;99.90
41928;DHT22;27616;51.420;6.788;2024-03-17T06:30:18;6.10;99.90
41928;DHT22;27616;51.420;6.788;2024-03-17T06:32:45;6.10;99.90
41928;DHT22;27616;51.420;6.788;2024-03-17T06:35:11;6.20;99.90
41928;DHT22;27616;51.420;6.788;2024-03-17T06:37:37;6.20;99.90
41928;DHT22;27616;51.420;6.788;2024-03-17T06:40:04;6.20;99.90
41928;DHT22;27616;51.420;6.788;2024-03-17T06:42:31;6.30;99.90
41928;DHT22;27616;51.420;6.788;2024-03-17T06:44:56;6.40;99.90
41928;DHT22;27616;51.420;6.788;2024-03-17T06:47:22;6.40;99.90
41928;DHT22;27616;51.420;6.788;2024-03-17T06:49:48;6.50;99.90
41928;DHT22;27616;51.420;6.788;2024-03-17T06:52:14;6.60;99.90
41928;DHT22;27616;51.420;6.788;2024-03-17T06:54:39;6.80;99.90
41928;DHT22;27616;51.420;6.788;2024-03-17T06:57:05;6.90;99.90
41928;DHT22;27616;51.420;6.788;2024-03-17T06:59:34;7.10;99.90
41928;DHT22;27616;51.420;6.788;2024-03-17T07:02:00;7.30;99.90
41928;DHT22;27616;51.420;6.788;2024-03-17T07:04:26;7.50;99.90
41928;DHT22;27616;51.420;6.788;2024-03-17T07:06:52;7.60;99.90
41928;DHT22;27616;51.420;6.788;2024-03-17T07:09:17;7.80;99.90
41928;DHT22;27616;51.420;6.788;2024-03-17T07:11:43;8.10;99.90
41928;DHT22;27616;51.420;6.788;2024-03-17T07:14:10;8.30;99.90
41928;DHT22;27616;51.420;6.788;2024-03-17T07:16:36;8.60;99.90
41928;DHT22;27616;51.420;6.788;2024-03-17T07:19:02;8.70;99.90
41928;DHT22;27616;51.420;6.788;2024-03-17T07:21:28;8.80;99.90
41928;DHT22;27616;51.420;6.788;2024-03-17T07:23:54;9.00;99.90
41928;DHT22;27616;51.420;6.788;2024-03-17T07:26:19;9.20;99.90
41928;DHT22;27616;51.420;6.788;2024-03-17T07:28:45;9.10;99.90
41928;DHT22;27616;51.420;6.788;2024-03-17T07:31:10;9.00;99.90
41928;DHT22;27616;51.420;6.788;2024-03-17T07:33:36;9.10;99.90
41928;DHT22;27616;51.420;6.788;2024-03-17T07:36:02;9.30;99.90
41928;DHT22;27616;51.420;6.788;2024-03-17T07:38:30;9.30;99.90
41928;DHT22;27616;51.420;6.788;2024-03-17T07:41:05;9.20;99.90
41928;DHT22;27616;51.420;6.788;2024-03-17T07:43:35;9.20;99.90
41928;DHT22;27616;51.420;6.788;2024-03-17T07:46:03;9.20;99.90
41928;DHT22;27616;51.420;6.788;2024-03-17T07:48:30;9.20;99.90
41928;DHT22;27616;51.420;6.788;2024-03-17T07:51:02;9.40;99.90
41928;DHT22;27616;51.420;6.788;2024-03-17T07:53:32;9.50;99.90
41928;DHT22;27616;51.420;6.788;2024-03-17T07:55:59;9.60;99.90
41928;DHT22;27616;51.420;6.788;2024-03-17T07:58:25;9.60;99.90
41928;DHT22;27616;51.420;6.788;2024-03-17T08:00:52;9.60;99.90
41928;DHT22;27616;51.420;6.788;2024-03-17T08:03:18;9.60;99.90
41928;DHT22;27616;51.420;6.788;2024-03-17T08:05:50;9.50;99.90
41928;DHT22;27616;51.420;6.788;2024-03-17T08:08:17;9.40;99.90
41928;DHT22;27616;51.420;6.788;2024-03-17T08:10:43;9.50;99.90
41928;DHT22;27616;51.420;6.788;2024-03-17T08:13:08;9.60;99.90
41928;DHT22;27616;51.420;6.788;2024-03-17T08:15:38;9.80;99.90
41928;DHT22;27616;51.420;6.788;2024-03-17T08:18:04;10.00;99.90
41928;DHT22;27616;51.420;6.788;2024-03-17T08:20:36;10.30;99.90
41928;DHT22;27616;51.420;6.788;2024-03-17T08:23:03;10.90;99.90
41928;DHT22;27616;51.420;6.788;2024-03-17T08:25:28;11.30;99.90
41928;DHT22;27616;51.420;6.788;2024-03-17T08:27:54;11.90;99.90
41928;DHT22;27616;51.420;6.788;2024-03-17T08:30:19;12.30;99.90
41928;DHT22;27616;51.420;6.788;2024-03-17T08:32:45;12.30;99.90
41928;DHT22;27616;51.420;6.788;2024-03-17T08:35:11;12.20;99.90
41928;DHT22;27616;51.420;6.788;2024-03-17T08:37:36;11.90;99.90
41928;DHT22;27616;51.420;6.788;2024-03-17T08:40:02;11.90;99.90
41928;DHT22;27616;51.420;6.788;2024-03-17T08:42:28;11.90;99.90
41928;DHT22;27616;51.420;6.788;2024-03-17T08:44:54;12.00;99.90
41928;DHT22;27616;51.420;6.788;2024-03-17T08:47:19;12.00;99.90
41928;DHT22;27616;51.420;6.788;2024-03-17T08:49:45;11.90;99.90
41928;DHT22;27616;51.420;6.788;2024-03-17T08:52:11;11.90;99.90
41928;DHT22;27616;51.420;6.788;2024-03-17T08:54:37;11.90;99.90
41928;DHT22;27616;51.420;6.788;2024-03-17T08:57:02;11.80;99.90
41928;DHT22;27616;51.420;6.788;2024-03-17T08:59:28;11.80;99.90
41928;DHT22;27616;51.420;6.788;2024-03-17T09:01:53;11.90;99.90
41928;DHT22;27616;51.420;6.788;2024-03-17T09:04:19;11.90;99.90
41928;DHT22;27616;51.420;6.788;2024-03-17T09:06:44;11.90;99.90
41928;DHT22;27616;51.420;6.788;2024-03-17T09:09:10;11.80;99.90
41928;DHT22;27616;51.420;6.788;2024-03-17T09:11:38;11.90;99.90
41928;DHT22;27616;51.420;6.788;2024-03-17T09:14:04;11.70;99.90
41928;DHT22;27616;51.420;6.788;2024-03-17T09:16:30;11.70;99.90
41928;DHT22;27616;51.420;6.788;2024-03-17T09:18:57;11.70;99.90
41928;DHT22;27616;51.420;6.788;2024-03-17T09:21:23;11.60;99.90
41928;DHT22;27616;51.420;6.788;2024-03-17T09:23:49;11.50;99.90
41928;DHT22;27616;51.420;6.788;2024-03-17T09:26:15;11.50;99.90
41928;DHT22;27616;51.420;6.788;2024-03-17T09:28:43;11.40;99.90
41928;DHT22;27616;51.420;6.788;2024-03-17T09:31:10;11.30;99.90
41928;DHT22;27616;51.420;6.788;2024-03-17T09:33:36;11.40;99.90
41928;DHT22;27616;51.420;6.788;2024-03-17T09:36:07;11.40;99.90
41928;DHT22;27616;51.420;6.788;2024-03-17T09:38:34;11.50;99.90
41928;DHT22;27616;51.420;6.788;2024-03-17T09:41:00;11.50;99.90
41928;DHT22;27616;51.420;6.788;2024-03-17T09:43:33;11.70;99.90
41928;DHT22;27616;51.420;6.788;2024-03-17T09:46:01;11.80;99.90
41928;DHT22;27616;51.420;6.788;2024-03-17T09:48:27;12.00;99.90
41928;DHT22;27616;51.420;6.788;2024-03-17T09:50:55;12.20;99.90
41928;DHT22;27616;51.420;6.788;2024-03-17T09:53:26;12.30;99.90
41928;DHT22;27616;51.420;6.788;2024-03-17T09:55:56;12.20;99.90
41928;DHT22;27616;51.420;6.788;2024-03-17T09:58:22;12.30;99.90
41928;DHT22;27616;51.420;6.788;2024-03-17T10:00:47;12.20;99.90
41928;DHT22;27616;51.420;6.788;2024-03-17T10:06:18;12.30;99.90
41928;DHT22;27616;51.420;6.788;2024-03-17T10:08:45;12.30;99.90
41928;DHT22;27616;51.420;6.788;2024-03-17T10:11:12;12.40;99.90
41928;DHT22;27616;51.420;6.788;2024-03-17T10:13:39;12.50;99.90
41928;DHT22;27616;51.420;6.788;2024-03-17T10:16:05;12.40;99.90
41928;DHT22;27616;51.420;6.788;2024-03-17T10:18:31;12.50;99.90
41928;DHT22;27616;51.420;6.788;2024-03-17T10:20:57;12.70;99.90
41928;DHT22;27616;51.420;6.788;2024-03-17T10:23:24;12.70;99.90
41928;DHT22;27616;51.420;6.788;2024-03-17T10:25:50;12.70;99.90
41928;DHT22;27616;51.420;6.788;2024-03-17T10:28:17;12.80;99.90
41928;DHT22;27616;51.420;6.788;2024-03-17T10:30:57;12.80;99.90
41928;DHT22;27616;51.420;6.788;2024-03-17T10:33:24;12.90;99.90
41928;DHT22;27616;51.420;6.788;2024-03-17T10:36:00;12.90;99.90
41928;DHT22;27616;51.420;6.788;2024-03-17T10:38:27;12.90;99.90
41928;DHT22;27616;51.420;6.788;2024-03-17T10:40:53;12.90;99.90
41928;DHT22;27616;51.420;6.788;2024-03-17T10:43:19;12.90;99.90
41928;DHT22;27616;51.420;6.788;2024-03-17T10:45:51;13.00;99.90
41928;DHT22;27616;51.420;6.788;2024-03-17T10:48:20;13.20;99.90
41928;DHT22;27616;51.420;6.788;2024-03-17T10:50:48;13.40;99.90
41928;DHT22;27616;51.420;6.788;2024-03-17T10:53:19;13.60;99.90
41928;DHT22;27616;51.420;6.788;2024-03-17T10:56:00;13.80;99.90
41928;DHT22;27616;51.420;6.788;2024-03-17T10:58:35;14.10;99.90
41928;DHT22;27616;51.420;6.788;2024-03-17T11:01:02;14.30;99.90
41928;DHT22;27616;51.420;6.788;2024-03-17T11:03:33;14.40;99.90
41928;DHT22;27616;51.420;6.788;2024-03-17T11:06:03;14.50;99.90
41928;DHT22;27616;51.420;6.788;2024-03-17T11:08:31;14.40;99.90
41928;DHT22;27616;51.420;6.788;2024-03-17T11:10:58;14.40;99.90
41928;DHT22;27616;51.420;6.788;2024-03-17T11:13:26;14.50;99.90
41928;DHT22;27616;51.420;6.788;2024-03-17T11:15:52;14.50;99.90
41928;DHT22;27616;51.420;6.788;2024-03-17T11:21:03;14.30;99.90
41928;DHT22;27616;51.420;6.788;2024-03-17T11:23:58;14.50;99.90
41928;DHT22;27616;51.420;6.788;2024-03-17T11:26:32;14.70;99.90
41928;DHT22;27616;51.420;6.788;2024-03-17T11:28:58;14.90;99.90
41928;DHT22;27616;51.420;6.788;2024-03-17T11:34:26;15.20;99.70
41928;DHT22;27616;51.420;6.788;2024-03-17T11:36:54;15.20;99.40
41928;DHT22;27616;51.420;6.788;2024-03-17T11:39:20;15.40;99.90
41928;DHT22;27616;51.420;6.788;2024-03-17T11:41:51;15.70;99.90
41928;DHT22;27616;51.420;6.788;2024-03-17T11:44:24;16.20;98.20
41928;DHT22;27616;51.420;6.788;2024-03-17T11:47:04;16.40;97.90
41928;DHT22;27616;51.420;6.788;2024-03-17T11:49:38;16.40;98.00
41928;DHT22;27616;51.420;6.788;2024-03-17T11:52:11;16.50;98.30
41928;DHT22;27616;51.420;6.788;2024-03-17T11:54:42;16.80;98.20
41928;DHT22;27616;51.420;6.788;2024-03-17T11:57:20;16.70;97.70
41928;DHT22;27616;51.420;6.788;2024-03-17T11:59:48;16.90;97.50
41928;DHT22;27616;51.420;6.788;2024-03-17T12:02:21;16.80;97.40
41928;DHT22;27616;51.420;6.788;2024-03-17T12:04:47;16.70;97.40
41928;DHT22;27616;51.420;6.788;2024-03-17T12:07:15;16.60;97.40
41928;DHT22;27616;51.420;6.788;2024-03-17T12:09:42;16.50;97.60
41928;DHT22;27616;51.420;6.788;2024-03-17T12:12:27;16.30;97.70
41928;DHT22;27616;51.420;6.788;2024-03-17T12:15:03;16.30;98.20
41928;DHT22;27616;51.420;6.788;2024-03-17T12:17:39;16.20;98.10
41928;DHT22;27616;51.420;6.788;2024-03-17T12:20:04;16.20;98.00
41928;DHT22;27616;51.420;6.788;2024-03-17T12:22:30;16.50;97.50
41928;DHT22;27616;51.420;6.788;2024-03-17T12:25:02;16.50;97.80
41928;DHT22;27616;51.420;6.788;2024-03-17T12:27:27;16.70;97.90
41928;DHT22;27616;51.420;6.788;2024-03-17T12:29:55;16.90;96.80
41928;DHT22;27616;51.420;6.788;2024-03-17T12:32:23;17.10;96.60
41928;DHT22;27616;51.420;6.788;2024-03-17T12:34:54;17.60;95.80
41928;DHT22;27616;51.420;6.788;2024-03-17T12:37:27;17.70;95.80
41928;DHT22;27616;51.420;6.788;2024-03-17T12:40:02;18.10;95.80
41928;DHT22;27616;51.420;6.788;2024-03-17T12:42:29;18.20;94.80
41928;DHT22;27616;51.420;6.788;2024-03-17T12:44:59;18.10;95.10
41928;DHT22;27616;51.420;6.788;2024-03-17T12:47:28;18.00;94.90
41928;DHT22;27616;51.420;6.788;2024-03-17T12:50:00;17.80;94.80
41928;DHT22;27616;51.420;6.788;2024-03-17T12:52:31;17.80;95.00
41928;DHT22;27616;51.420;6.788;2024-03-17T12:55:02;17.60;95.20
41928;DHT22;27616;51.420;6.788;2024-03-17T12:57:47;17.70;95.30
41928;DHT22;27616;51.420;6.788;2024-03-17T13:00:32;17.70;94.60
41928;DHT22;27616;51.420;6.788;2024-03-17T13:03:07;17.70;94.80
41928;DHT22;27616;51.420;6.788;2024-03-17T13:05:34;17.60;95.00
41928;DHT22;27616;51.420;6.788;2024-03-17T13:07:59;17.10;95.80
41928;DHT22;27616;51.420;6.788;2024-03-17T13:10:27;16.90;96.30
41928;DHT22;27616;51.420;6.788;2024-03-17T13:13:07;16.70;96.30
41928;DHT22;27616;51.420;6.788;2024-03-17T13:15:34;16.40;97.00
41928;DHT22;27616;51.420;6.788;2024-03-17T13:18:02;16.20;97.20
41928;DHT22;27616;51.420;6.788;2024-03-17T13:20:30;16.20;97.20
41928;DHT22;27616;51.420;6.788;2024-03-17T13:22:56;16.20;97.00
41928;DHT22;27616;51.420;6.788;2024-03-17T13:25:24;16.10;96.50
41928;DHT22;27616;51.420;6.788;2024-03-17T13:27:52;15.90;97.00
41928;DHT22;27616;51.420;6.788;2024-03-17T13:30:20;15.80;97.50
41928;DHT22;27616;51.420;6.788;2024-03-17T13:32:49;15.80;98.00
41928;DHT22;27616;51.420;6.788;2024-03-17T13:35:22;15.60;98.70
41928;DHT22;27616;51.420;6.788;2024-03-17T13:37:49;15.40;98.70
41928;DHT22;27616;51.420;6.788;2024-03-17T13:40:17;15.40;98.50
41928;DHT22;27616;51.420;6.788;2024-03-17T13:42:51;15.40;98.50
41928;DHT22;27616;51.420;6.788;2024-03-17T13:45:17;15.30;98.80
41928;DHT22;27616;51.420;6.788;2024-03-17T13:47:48;15.30;99.10
41928;DHT22;27616;51.420;6.788;2024-03-17T13:50:14;15.20;98.90
41928;DHT22;27616;51.420;6.788;2024-03-17T13:52:40;15.20;99.10
41928;DHT22;27616;51.420;6.788;2024-03-17T13:55:17;15.10;99.20
41928;DHT22;27616;51.420;6.788;2024-03-17T13:57:44;15.10;99.90
41928;DHT22;27616;51.420;6.788;2024-03-17T14:00:11;15.10;99.60
41928;DHT22;27616;51.420;6.788;2024-03-17T14:02:48;15.00;99.90
41928;DHT22;27616;51.420;6.788;2024-03-17T14:05:16;15.00;99.60
41928;DHT22;27616;51.420;6.788;2024-03-17T14:07:42;15.00;99.90
41928;DHT22;27616;51.420;6.788;2024-03-17T14:10:09;15.00;99.90
41928;DHT22;27616;51.420;6.788;2024-03-17T14:12:35;14.90;99.90
41928;DHT22;27616;51.420;6.788;2024-03-17T14:15:04;14.80;99.90
41928;DHT22;27616;51.420;6.788;2024-03-17T14:17:30;14.80;99.90
41928;DHT22;27616;51.420;6.788;2024-03-17T14:19:56;14.80;99.90
41928;DHT22;27616;51.420;6.788;2024-03-17T14:22:22;14.80;99.90
41928;DHT22;27616;51.420;6.788;2024-03-17T14:24:47;14.80;99.90
41928;DHT22;27616;51.420;6.788;2024-03-17T14:27:15;14.80;99.90
41928;DHT22;27616;51.420;6.788;2024-03-17T14:29:42;14.90;99.90
41928;DHT22;27616;51.420;6.788;2024-03-17T14:32:08;14.90;99.90
41928;DHT22;27616;51.420;6.788;2024-03-17T14:34:34;15.00;99.90
41928;DHT22;27616;51.420;6.788;2024-03-17T14:37:03;14.90;99.90
41928;DHT22;27616;51.420;6.788;2024-03-17T14:39:30;14.80;99.90
41928;DHT22;27616;51.420;6.788;2024-03-17T14:41:56;14.80;99.90
41928;DHT22;27616;51.420;6.788;2024-03-17T14:44:22;14.80;99.90
41928;DHT22;27616;51.420;6.788;2024-03-17T14:46:49;14.80;99.90
41928;DHT22;27616;51.420;6.788;2024-03-17T14:49:18;14.80;99.90
41928;DHT22;27616;51.420;6.788;2024-03-17T14:51:43;14.70;99.90
41928;DHT22;27616;51.420;6.788;2024-03-17T14:54:09;14.80;99.90
41928;DHT22;27616;51.420;6.788;2024-03-17T14:56:36;14.80;99.90
41928;DHT22;27616;51.420;6.788;2024-03-17T14:59:01;14.80;99.90
41928;DHT22;27616;51.420;6.788;2024-03-17T15:01:27;14.70;99.90
41928;DHT22;27616;51.420;6.788;2024-03-17T15:03:55;14.80;99.90
41928;DHT22;27616;51.420;6.788;2024-03-17T15:06:21;14.80;99.90
41928;DHT22;27616;51.420;6.788;2024-03-17T15:08:46;14.80;99.90
41928;DHT22;27616;51.420;6.788;2024-03-17T15:11:12;14.90;99.90
41928;DHT22;27616;51.420;6.788;2024-03-17T15:13:38;14.90;99.90
41928;DHT22;27616;51.420;6.788;2024-03-17T15:16:04;14.90;99.90
41928;DHT22;27616;51.420;6.788;2024-03-17T15:18:31;15.00;99.90
41928;DHT22;27616;51.420;6.788;2024-03-17T15:20:56;15.00;99.90
41928;DHT22;27616;51.420;6.788;2024-03-17T15:23:22;15.00;99.90
41928;DHT22;27616;51.420;6.788;2024-03-17T15:26:04;14.90;99.80
41928;DHT22;27616;51.420;6.788;2024-03-17T15:28:40;14.90;99.90
41928;DHT22;27616;51.420;6.788;2024-03-17T15:31:07;15.00;99.80
41928;DHT22;27616;51.420;6.788;2024-03-17T15:33:34;15.00;99.80
41928;DHT22;27616;51.420;6.788;2024-03-17T15:36:04;15.10;99.90
41928;DHT22;27616;51.420;6.788;2024-03-17T15:38:31;15.10;99.80
41928;DHT22;27616;51.420;6.788;2024-03-17T15:40:59;15.10;99.80
41928;DHT22;27616;51.420;6.788;2024-03-17T15:43:24;15.10;99.60
41928;DHT22;27616;51.420;6.788;2024-03-17T15:45:50;15.10;99.60
41928;DHT22;27616;51.420;6.788;2024-03-17T15:48:16;15.10;99.60
41928;DHT22;27616;51.420;6.788;2024-03-17T15:50:41;15.10;99.60
41928;DHT22;27616;51.420;6.788;2024-03-17T15:53:08;15.10;99.00